sensor_id;sensor_type;location;lat;lon;timestamp;temperature;humidity
18105;DHT22;9179;50.968;3.134;2023-04-09T00:01:36;6.60;99.90
18105;DHT22;9179;50.968;3.134;2023-04-09T00:04:03;6.60;99.90
18105;DHT22;9179;50.968;3.134;2023-04-09T00:06:30;6.60;99.90
18105;DHT22;9179;50.968;3.134;2023-04-09T00:08:57;6.60;99.90
18105;DHT22;9179;50.968;3.134;2023-04-09T00:11:24;6.50;99.90
18105;DHT22;9179;50.968;3.134;2023-04-09T00:13:52;6.50;99.90
18105;DHT22;9179;50.968;3.134;2023-04-09T00:16:19;6.40;99.90
18105;DHT22;9179;50.968;3.134;2023-04-09T00:18:46;6.40;99.90
18105;DHT22;9179;50.968;3.134;2023-04-09T00:21:13;6.40;99.90
18105;DHT22;9179;50.968;3.134;2023-04-09T00:23:41;6.40;99.90
18105;DHT22;9179;50.968;3.134;2023-04-09T00:26:08;6.30;99.90
18105;DHT22;9179;50.968;3.134;2023-04-09T00:28:35;6.30;99.90
18105;DHT22;9179;50.968;3.134;2023-04-09T00:31:03;6.20;99.90
18105;DHT22;9179;50.968;3.134;2023-04-09T00:33:31;6.20;99.90
18105;DHT22;9179;50.968;3.134;2023-04-09T00:35:57;6.10;99.90
18105;DHT22;9179;50.968;3.134;2023-04-09T00:38:24;6.10;99.90
18105;DHT22;9179;50.968;3.134;2023-04-09T00:40:51;6.00;99.90
18105;DHT22;9179;50.968;3.134;2023-04-09T00:43:18;6.00;99.90
18105;DHT22;9179;50.968;3.134;2023-04-09T00:45:46;6.00;99.90
18105;DHT22;9179;50.968;3.134;2023-04-09T00:48:15;5.90;99.90
18105;DHT22;9179;50.968;3.134;2023-04-09T00:50:42;5.90;99.90
18105;DHT22;9179;50.968;3.134;2023-04-09T00:53:11;5.90;99.90
18105;DHT22;9179;50.968;3.134;2023-04-09T00:55:39;5.90;99.90
18105;DHT22;9179;50.968;3.134;2023-04-09T00:58:06;6.00;99.90
18105;DHT22;9179;50.968;3.134;2023-04-09T01:00:33;6.10;99.90
18105;DHT22;9179;50.968;3.134;2023-04-09T01:03:01;6.20;99.90
18105;DHT22;9179;50.968;3.134;2023-04-09T01:05:38;6.30;99.90
18105;DHT22;9179;50.968;3.134;2023-04-09T01:08:17;6.40;99.90
18105;DHT22;9179;50.968;3.134;2023-04-09T01:10:50;6.40;99.90
18105;DHT22;9179;50.968;3.134;2023-04-09T01:13:27;6.30;99.90
18105;DHT22;9179;50.968;3.134;2023-04-09T01:15:58;6.20;99.90
18105;DHT22;9179;50.968;3.134;2023-04-09T01:18:29;6.10;99.90
18105;DHT22;9179;50.968;3.134;2023-04-09T01:21:03;6.10;99.90
18105;DHT22;9179;50.968;3.134;2023-04-09T01:23:40;6.10;99.90
18105;DHT22;9179;50.968;3.134;2023-04-09T01:26:17;6.10;99.90
18105;DHT22;9179;50.968;3.134;2023-04-09T01:28:52;6.10;99.90
18105;DHT22;9179;50.968;3.134;2023-04-09T01:31:24;6.20;99.90
18105;DHT22;9179;50.968;3.134;2023-04-09T01:33:52;6.30;99.90
18105;DHT22;9179;50.968;3.134;2023-04-09T01:36:20;6.40;99.90
18105;DHT22;9179;50.968;3.134;2023-04-09T01:38:48;6.40;99.90
18105;DHT22;9179;50.968;3.134;2023-04-09T01:41:18;6.30;99.90
18105;DHT22;9179;50.968;3.134;2023-04-09T01:43:49;6.30;99.90
18105;DHT22;9179;50.968;3.134;2023-04-09T01:46:17;6.20;99.90
18105;DHT22;9179;50.968;3.134;2023-04-09T01:48:45;6.30;99.90
18105;DHT22;9179;50.968;3.134;2023-04-09T01:51:12;6.30;99.90
18105;DHT22;9179;50.968;3.134;2023-04-09T01:53:40;6.30;99.90
18105;DHT22;9179;50.968;3.134;2023-04-09T01:56:07;6.20;99.90
18105;DHT22;9179;50.968;3.134;2023-04-09T01:58:34;6.20;99.90
18105;DHT22;9179;50.968;3.134;2023-04-09T02:01:06;6.20;99.90
18105;DHT22;9179;50.968;3.134;2023-04-09T02:03:40;6.20;99.90
18105;DHT22;9179;50.968;3.134;2023-04-09T02:06:13;6.20;99.90
18105;DHT22;9179;50.968;3.134;2023-04-09T02:08:43;6.10;99.90
18105;DHT22;9179;50.968;3.134;2023-04-09T02:11:13;6.10;99.90
18105;DHT22;9179;50.968;3.134;2023-04-09T02:13:42;6.00;99.90
18105;DHT22;9179;50.968;3.134;2023-04-09T02:16:12;6.10;99.90
18105;DHT22;9179;50.968;3.134;2023-04-09T02:18:39;6.10;99.90
18105;DHT22;9179;50.968;3.134;2023-04-09T02:21:06;6.10;99.90
18105;DHT22;9179;50.968;3.134;2023-04-09T02:23:33;6.10;99.90
18105;DHT22;9179;50.968;3.134;2023-04-09T02:26:00;6.00;99.90
18105;DHT22;9179;50.968;3.134;2023-04-09T02:28:27;5.90;99.90
18105;DHT22;9179;50.968;3.134;2023-04-09T02:30:54;5.80;99.90
18105;DHT22;9179;50.968;3.134;2023-04-09T02:33:22;5.80;99.90
18105;DHT22;9179;50.968;3.134;2023-04-09T02:35:49;5.80;99.90
18105;DHT22;9179;50.968;3.134;2023-04-09T02:38:16;5.70;99.90
18105;DHT22;9179;50.968;3.134;2023-04-09T02:40:43;5.70;99.90
18105;DHT22;9179;50.968;3.134;2023-04-09T02:43:10;5.60;99.90
18105;DHT22;9179;50.968;3.134;2023-04-09T02:45:37;5.60;99.90
18105;DHT22;9179;50.968;3.134;2023-04-09T02:48:04;5.50;99.90
18105;DHT22;9179;50.968;3.134;2023-04-09T02:50:33;5.50;99.90
18105;DHT22;9179;50.968;3.134;2023-04-09T02:53:00;5.50;99.90
18105;DHT22;9179;50.968;3.134;2023-04-09T02:55:27;5.50;99.90
18105;DHT22;9179;50.968;3.134;2023-04-09T02:57:54;5.40;99.90
18105;DHT22;9179;50.968;3.134;2023-04-09T03:00:21;5.40;99.90
18105;DHT22;9179;50.968;3.134;2023-04-09T03:02:47;5.30;99.90
18105;DHT22;9179;50.968;3.134;2023-04-09T03:05:14;5.20;99.90
18105;DHT22;9179;50.968;3.134;2023-04-09T03:07:43;5.20;99.90
18105;DHT22;9179;50.968;3.134;2023-04-09T03:10:11;5.20;99.90
18105;DHT22;9179;50.968;3.134;2023-04-09T03:12:38;5.10;99.90
18105;DHT22;9179;50.968;3.134;2023-04-09T03:15:06;5.20;99.90
18105;DHT22;9179;50.968;3.134;2023-04-09T03:17:33;5.20;99.90
18105;DHT22;9179;50.968;3.134;2023-04-09T03:20:00;5.10;99.90
18105;DHT22;9179;50.968;3.134;2023-04-09T03:22:27;5.10;99.90
18105;DHT22;9179;50.968;3.134;2023-04-09T03:24:56;5.10;99.90
18105;DHT22;9179;50.968;3.134;2023-04-09T03:27:23;5.10;99.90
18105;DHT22;9179;50.968;3.134;2023-04-09T03:29:54;5.00;99.90
18105;DHT22;9179;50.968;3.134;2023-04-09T03:32:21;5.00;99.90
18105;DHT22;9179;50.968;3.134;2023-04-09T03:34:48;5.00;99.90
18105;DHT22;9179;50.968;3.134;2023-04-09T03:37:15;4.90;99.90
18105;DHT22;9179;50.968;3.134;2023-04-09T03:39:42;4.90;99.90
18105;DHT22;9179;50.968;3.134;2023-04-09T03:42:10;4.80;99.90
18105;DHT22;9179;50.968;3.134;2023-04-09T03:44:37;4.80;99.90
18105;DHT22;9179;50.968;3.134;2023-04-09T03:47:04;4.80;99.90
18105;DHT22;9179;50.968;3.134;2023-04-09T03:49:33;4.80;99.90
18105;DHT22;9179;50.968;3.134;2023-04-09T03:52:00;4.80;99.90
18105;DHT22;9179;50.968;3.134;2023-04-09T03:54:28;4.80;99.90
18105;DHT22;9179;50.968;3.134;2023-04-09T03:56:55;4.80;99.90
18105;DHT22;9179;50.968;3.134;2023-04-09T03:59:24;4.80;99.90
18105;DHT22;9179;50.968;3.134;2023-04-09T04:01:51;4.80;99.90
18105;DHT22;9179;50.968;3.134;2023-04-09T04:04:18;4.80;99.90
18105;DHT22;9179;50.968;3.134;2023-04-09T04:06:44;4.70;99.90
18105;DHT22;9179;50.968;3.134;2023-04-09T04:09:11;4.70;99.90
18105;DHT22;9179;50.968;3.134;2023-04-09T04:11:38;4.60;99.90
18105;DHT22;9179;50.968;3.134;2023-04-09T04:14:05;4.60;99.90
18105;DHT22;9179;50.968;3.134;2023-04-09T04:16:33;4.60;99.90
18105;DHT22;9179;50.968;3.134;2023-04-09T04:19:00;4.60;99.90
18105;DHT22;9179;50.968;3.134;2023-04-09T04:21:27;4.60;99.90
18105;DHT22;9179;50.968;3.134;2023-04-09T04:23:54;4.60;99.90
18105;DHT22;9179;50.968;3.134;2023-04-09T04:26:24;4.60;99.90
18105;DHT22;9179;50.968;3.134;2023-04-09T04:28:51;4.60;99.90
18105;DHT22;9179;50.968;3.134;2023-04-09T04:31:18;4.70;99.90
18105;DHT22;9179;50.968;3.134;2023-04-09T04:33:46;4.80;99.90
18105;DHT22;9179;50.968;3.134;2023-04-09T04:36:13;4.90;99.90
18105;DHT22;9179;50.968;3.134;2023-04-09T04:38:41;5.00;99.90
18105;DHT22;9179;50.968;3.134;2023-04-09T04:41:09;5.20;99.90
18105;DHT22;9179;50.968;3.134;2023-04-09T04:43:36;5.30;99.90
18105;DHT22;9179;50.968;3.134;2023-04-09T04:46:03;5.40;99.90
18105;DHT22;9179;50.968;3.134;2023-04-09T04:48:30;5.50;99.90
18105;DHT22;9179;50.968;3.134;2023-04-09T04:51:00;5.60;99.90
18105;DHT22;9179;50.968;3.134;2023-04-09T04:53:27;5.70;99.90
18105;DHT22;9179;50.968;3.134;2023-04-09T04:55:54;5.60;99.90
18105;DHT22;9179;50.968;3.134;2023-04-09T04:58:21;5.60;99.90
18105;DHT22;9179;50.968;3.134;2023-04-09T05:00:48;5.60;99.90
18105;DHT22;9179;50.968;3.134;2023-04-09T05:03:15;5.60;99.90
18105;DHT22;9179;50.968;3.134;2023-04-09T05:05:42;5.60;99.90
18105;DHT22;9179;50.968;3.134;2023-04-09T05:08:11;5.70;99.90
18105;DHT22;9179;50.968;3.134;2023-04-09T05:10:40;5.70;99.90
18105;DHT22;9179;50.968;3.134;2023-04-09T05:13:07;5.80;99.90
18105;DHT22;9179;50.968;3.134;2023-04-09T05:15:36;5.80;99.90
18105;DHT22;9179;50.968;3.134;2023-04-09T05:18:04;5.80;99.90
18105;DHT22;9179;50.968;3.134;2023-04-09T05:20:32;5.80;99.90
18105;DHT22;9179;50.968;3.134;2023-04-09T05:22:59;5.80;99.90
18105;DHT22;9179;50.968;3.134;2023-04-09T05:25:27;5.80;99.90
18105;DHT22;9179;50.968;3.134;2023-04-09T05:27:54;5.70;99.90
18105;DHT22;9179;50.968;3.134;2023-04-09T05:30:21;5.70;99.90
18105;DHT22;9179;50.968;3.134;2023-04-09T05:32:48;5.70;99.90
18105;DHT22;9179;50.968;3.134;2023-04-09T05:35:15;5.70;99.90
18105;DHT22;9179;50.968;3.134;2023-04-09T05:37:42;5.80;99.90
18105;DHT22;9179;50.968;3.134;2023-04-09T05:40:10;5.80;99.90
18105;DHT22;9179;50.968;3.134;2023-04-09T05:42:39;5.80;99.90
18105;DHT22;9179;50.968;3.134;2023-04-09T05:45:07;5.90;99.90
18105;DHT22;9179;50.968;3.134;2023-04-09T05:47:34;6.10;99.90
18105;DHT22;9179;50.968;3.134;2023-04-09T05:50:01;6.20;99.90
18105;DHT22;9179;50.968;3.134;2023-04-09T05:52:28;6.20;99.90
18105;DHT22;9179;50.968;3.134;2023-04-09T05:54:55;6.30;99.90
18105;DHT22;9179;50.968;3.134;2023-04-09T05:57:21;6.40;99.90
18105;DHT22;9179;50.968;3.134;2023-04-09T05:59:50;6.40;99.90
18105;DHT22;9179;50.968;3.134;2023-04-09T06:02:17;6.50;99.90
18105;DHT22;9179;50.968;3.134;2023-04-09T06:04:44;6.70;99.90
18105;DHT22;9179;50.968;3.134;2023-04-09T06:07:11;6.80;99.90
18105;DHT22;9179;50.968;3.134;2023-04-09T06:09:38;6.90;99.90
18105;DHT22;9179;50.968;3.134;2023-04-09T06:12:04;7.10;99.90
18105;DHT22;9179;50.968;3.134;2023-04-09T06:14:31;7.40;99.90
18105;DHT22;9179;50.968;3.134;2023-04-09T06:17:00;7.50;99.90
18105;DHT22;9179;50.968;3.134;2023-04-09T06:19:27;7.80;99.90
18105;DHT22;9179;50.968;3.134;2023-04-09T06:21:54;8.00;99.90
18105;DHT22;9179;50.968;3.134;2023-04-09T06:24:21;8.30;99.90
18105;DHT22;9179;50.968;3.134;2023-04-09T06:26:48;8.60;99.90
18105;DHT22;9179;50.968;3.134;2023-04-09T06:29:15;9.10;99.90
18105;DHT22;9179;50.968;3.134;2023-04-09T06:31:42;9.70;99.90
18105;DHT22;9179;50.968;3.134;2023-04-09T06:34:10;10.30;99.90
18105;DHT22;9179;50.968;3.134;2023-04-09T06:36:37;10.80;99.90
18105;DHT22;9179;50.968;3.134;2023-04-09T06:39:05;11.40;99.90
18105;DHT22;9179;50.968;3.134;2023-04-09T06:41:32;12.20;99.90
18105;DHT22;9179;50.968;3.134;2023-04-09T06:43:59;12.80;99.90
18105;DHT22;9179;50.968;3.134;2023-04-09T06:46:26;13.50;99.90
18105;DHT22;9179;50.968;3.134;2023-04-09T06:48:53;13.80;99.90
18105;DHT22;9179;50.968;3.134;2023-04-09T06:51:22;14.40;99.90
18105;DHT22;9179;50.968;3.134;2023-04-09T06:53:48;14.70;99.90
18105;DHT22;9179;50.968;3.134;2023-04-09T06:56:15;14.80;99.90
18105;DHT22;9179;50.968;3.134;2023-04-09T06:58:42;14.90;99.90
18105;DHT22;9179;50.968;3.134;2023-04-09T07:01:10;15.20;99.90
18105;DHT22;9179;50.968;3.134;2023-04-09T07:03:37;15.80;99.90
18105;DHT22;9179;50.968;3.134;2023-04-09T07:06:05;16.10;99.90
18105;DHT22;9179;50.968;3.134;2023-04-09T07:08:33;16.30;99.90
18105;DHT22;9179;50.968;3.134;2023-04-09T07:11:00;16.50;99.90
18105;DHT22;9179;50.968;3.134;2023-04-09T07:13:27;16.40;99.90
18105;DHT22;9179;50.968;3.134;2023-04-09T07:15:55;16.80;99.90
18105;DHT22;9179;50.968;3.134;2023-04-09T07:18:22;16.90;99.90
18105;DHT22;9179;50.968;3.134;2023-04-09T07:20:51;17.10;99.90
18105;DHT22;9179;50.968;3.134;2023-04-09T07:23:18;17.10;99.90
18105;DHT22;9179;50.968;3.134;2023-04-09T07:25:46;17.30;99.90
18105;DHT22;9179;50.968;3.134;2023-04-09T07:28:13;17.20;99.90
18105;DHT22;9179;50.968;3.134;2023-04-09T07:30:40;16.90;99.90
18105;DHT22;9179;50.968;3.134;2023-04-09T07:33:07;17.20;99.90
18105;DHT22;9179;50.968;3.134;2023-04-09T07:35:34;17.40;99.90
18105;DHT22;9179;50.968;3.134;2023-04-09T07:38:01;17.20;99.90
18105;DHT22;9179;50.968;3.134;2023-04-09T07:40:28;17.80;99.90
18105;DHT22;9179;50.968;3.134;2023-04-09T07:42:56;17.90;99.90
18105;DHT22;9179;50.968;3.134;2023-04-09T07:45:23;17.40;99.90
18105;DHT22;9179;50.968;3.134;2023-04-09T07:47:50;17.40;99.90
18105;DHT22;9179;50.968;3.134;2023-04-09T07:50:17;17.20;99.90
18105;DHT22;9179;50.968;3.134;2023-04-09T07:52:44;16.90;99.90
18105;DHT22;9179;50.968;3.134;2023-04-09T07:55:12;16.60;99.90
18105;DHT22;9179;50.968;3.134;2023-04-09T07:57:39;16.50;99.90
18105;DHT22;9179;50.968;3.134;2023-04-09T08:00:10;16.40;99.90
18105;DHT22;9179;50.968;3.134;2023-04-09T08:02:37;16.70;99.90
18105;DHT22;9179;50.968;3.134;2023-04-09T08:05:05;17.30;99.90
18105;DHT22;9179;50.968;3.134;2023-04-09T08:07:32;18.10;99.90
18105;DHT22;9179;50.968;3.134;2023-04-09T08:09:59;18.90;99.90
18105;DHT22;9179;50.968;3.134;2023-04-09T08:12:26;19.70;99.90
18105;DHT22;9179;50.968;3.134;2023-04-09T08:14:53;19.90;99.90
18105;DHT22;9179;50.968;3.134;2023-04-09T08:17:22;20.00;99.90
18105;DHT22;9179;50.968;3.134;2023-04-09T08:19:49;20.40;99.90
18105;DHT22;9179;50.968;3.134;2023-04-09T08:22:16;20.60;99.90
18105;DHT22;9179;50.968;3.134;2023-04-09T08:24:42;20.40;99.90
18105;DHT22;9179;50.968;3.134;2023-04-09T08:27:10;20.80;99.90
18105;DHT22;9179;50.968;3.134;2023-04-09T08:29:37;21.00;99.90
18105;DHT22;9179;50.968;3.134;2023-04-09T08:32:05;21.40;99.90
18105;DHT22;9179;50.968;3.134;2023-04-09T08:34:34;21.60;99.90
18105;DHT22;9179;50.968;3.134;2023-04-09T08:37:00;21.90;99.90
18105;DHT22;9179;50.968;3.134;2023-04-09T08:39:27;21.70;99.90
18105;DHT22;9179;50.968;3.134;2023-04-09T08:41:57;21.30;99.90
18105;DHT22;9179;50.968;3.134;2023-04-09T08:44:25;21.20;99.90
18105;DHT22;9179;50.968;3.134;2023-04-09T08:46:52;20.90;99.90
18105;DHT22;9179;50.968;3.134;2023-04-09T08:49:19;21.20;99.90
18105;DHT22;9179;50.968;3.134;2023-04-09T08:51:48;21.10;99.90
18105;DHT22;9179;50.968;3.134;2023-04-09T08:54:16;21.10;99.90
18105;DHT22;9179;50.968;3.134;2023-04-09T08:56:44;21.30;99.90
18105;DHT22;9179;50.968;3.134;2023-04-09T08:59:14;21.80;99.90
18105;DHT22;9179;50.968;3.134;2023-04-09T09:01:42;22.50;99.90
18105;DHT22;9179;50.968;3.134;2023-04-09T09:04:11;23.00;99.90
18105;DHT22;9179;50.968;3.134;2023-04-09T09:06:39;22.80;99.90
18105;DHT22;9179;50.968;3.134;2023-04-09T09:09:08;22.50;99.90
18105;DHT22;9179;50.968;3.134;2023-04-09T09:11:36;23.00;99.90
18105;DHT22;9179;50.968;3.134;2023-04-09T09:14:05;23.00;99.90
18105;DHT22;9179;50.968;3.134;2023-04-09T09:16:33;22.80;99.90
18105;DHT22;9179;50.968;3.134;2023-04-09T09:19:04;22.80;99.90
18105;DHT22;9179;50.968;3.134;2023-04-09T09:21:31;23.60;99.90
18105;DHT22;9179;50.968;3.134;2023-04-09T09:23:59;23.90;99.90
18105;DHT22;9179;50.968;3.134;2023-04-09T09:26:28;23.40;99.90
18105;DHT22;9179;50.968;3.134;2023-04-09T09:28:57;23.10;99.90
18105;DHT22;9179;50.968;3.134;2023-04-09T09:31:24;23.20;99.90
18105;DHT22;9179;50.968;3.134;2023-04-09T09:33:52;23.40;99.90
18105;DHT22;9179;50.968;3.134;2023-04-09T09:36:30;23.40;99.90
18105;DHT22;9179;50.968;3.134;2023-04-09T09:38:58;23.40;99.40
18105;DHT22;9179;50.968;3.134;2023-04-09T09:41:29;23.10;99.00
18105;DHT22;9179;50.968;3.134;2023-04-09T09:43:56;23.10;99.10
18105;DHT22;9179;50.968;3.134;2023-04-09T09:46:24;23.10;99.30
18105;DHT22;9179;50.968;3.134;2023-04-09T09:48:52;23.60;99.30
18105;DHT22;9179;50.968;3.134;2023-04-09T09:51:23;23.80;97.70
18105;DHT22;9179;50.968;3.134;2023-04-09T09:53:53;23.80;96.40
18105;DHT22;9179;50.968;3.134;2023-04-09T09:56:22;23.80;97.20
18105;DHT22;9179;50.968;3.134;2023-04-09T09:59:02;23.70;96.60
18105;DHT22;9179;50.968;3.134;2023-04-09T10:01:32;24.00;96.30
18105;DHT22;9179;50.968;3.134;2023-04-09T10:03:59;24.00;96.00
18105;DHT22;9179;50.968;3.134;2023-04-09T10:06:27;23.60;95.90
18105;DHT22;9179;50.968;3.134;2023-04-09T10:08:57;23.80;96.60
18105;DHT22;9179;50.968;3.134;2023-04-09T10:11:24;24.20;95.70
18105;DHT22;9179;50.968;3.134;2023-04-09T10:13:55;24.50;95.60
18105;DHT22;9179;50.968;3.134;2023-04-09T10:16:24;24.60;94.50
18105;DHT22;9179;50.968;3.134;2023-04-09T10:18:52;24.60;94.60
18105;DHT22;9179;50.968;3.134;2023-04-09T10:21:28;25.00;94.60
18105;DHT22;9179;50.968;3.134;2023-04-09T10:23:58;25.60;93.00
18105;DHT22;9179;50.968;3.134;2023-04-09T10:26:32;25.90;93.30
18105;DHT22;9179;50.968;3.134;2023-04-09T10:29:04;25.90;92.30
18105;DHT22;9179;50.968;3.134;2023-04-09T10:31:46;25.60;92.60
18105;DHT22;9179;50.968;3.134;2023-04-09T10:34:15;25.20;91.70
18105;DHT22;9179;50.968;3.134;2023-04-09T10:36:42;25.50;91.80
18105;DHT22;9179;50.968;3.134;2023-04-09T10:39:13;25.30;91.70
18105;DHT22;9179;50.968;3.134;2023-04-09T10:41:41;25.20;91.90
18105;DHT22;9179;50.968;3.134;2023-04-09T10:44:19;25.60;92.10
18105;DHT22;9179;50.968;3.134;2023-04-09T10:46:47;26.00;91.10
18105;DHT22;9179;50.968;3.134;2023-04-09T10:49:17;25.40;90.20
18105;DHT22;9179;50.968;3.134;2023-04-09T10:51:50;25.70;91.20
18105;DHT22;9179;50.968;3.134;2023-04-09T10:54:39;25.20;86.50
18105;DHT22;9179;50.968;3.134;2023-04-09T10:57:11;25.40;88.90
18105;DHT22;9179;50.968;3.134;2023-04-09T10:59:40;25.70;86.70
18105;DHT22;9179;50.968;3.134;2023-04-09T11:02:10;25.50;87.30
18105;DHT22;9179;50.968;3.134;2023-04-09T11:04:55;25.60;87.40
18105;DHT22;9179;50.968;3.134;2023-04-09T11:07:25;25.90;86.40
18105;DHT22;9179;50.968;3.134;2023-04-09T11:09:54;26.60;87.00
18105;DHT22;9179;50.968;3.134;2023-04-09T11:12:21;26.70;83.60
18105;DHT22;9179;50.968;3.134;2023-04-09T11:14:47;26.30;83.80
18105;DHT22;9179;50.968;3.134;2023-04-09T11:17:16;25.60;82.30
18105;DHT22;9179;50.968;3.134;2023-04-09T11:19:43;25.50;84.30
18105;DHT22;9179;50.968;3.134;2023-04-09T11:22:11;25.30;84.10
18105;DHT22;9179;50.968;3.134;2023-04-09T11:24:41;26.10;85.80
18105;DHT22;9179;50.968;3.134;2023-04-09T11:27:08;26.60;84.20
18105;DHT22;9179;50.968;3.134;2023-04-09T11:29:35;27.00;83.50
18105;DHT22;9179;50.968;3.134;2023-04-09T11:32:02;27.00;80.60
18105;DHT22;9179;50.968;3.134;2023-04-09T11:34:32;27.40;82.30
18105;DHT22;9179;50.968;3.134;2023-04-09T11:36:59;27.70;81.80
18105;DHT22;9179;50.968;3.134;2023-04-09T11:39:31;27.70;80.10
18105;DHT22;9179;50.968;3.134;2023-04-09T11:42:02;27.80;80.00
18105;DHT22;9179;50.968;3.134;2023-04-09T11:44:29;28.00;79.50
18105;DHT22;9179;50.968;3.134;2023-04-09T11:46:56;28.50;79.00
18105;DHT22;9179;50.968;3.134;2023-04-09T11:49:24;27.80;74.90
18105;DHT22;9179;50.968;3.134;2023-04-09T11:51:52;27.40;77.20
18105;DHT22;9179;50.968;3.134;2023-04-09T11:54:19;27.50;77.00
18105;DHT22;9179;50.968;3.134;2023-04-09T11:56:48;27.80;77.50
18105;DHT22;9179;50.968;3.134;2023-04-09T11:59:20;27.40;75.40
18105;DHT22;9179;50.968;3.134;2023-04-09T12:01:48;26.90;76.80
18105;DHT22;9179;50.968;3.134;2023-04-09T12:04:18;27.50;77.10
18105;DHT22;9179;50.968;3.134;2023-04-09T12:06:46;28.00;75.90
18105;DHT22;9179;50.968;3.134;2023-04-09T12:09:15;28.20;76.00
18105;DHT22;9179;50.968;3.134;2023-04-09T12:11:43;28.10;74.40
18105;DHT22;9179;50.968;3.134;2023-04-09T12:14:12;27.30;71.80
18105;DHT22;9179;50.968;3.134;2023-04-09T12:16:39;26.40;72.50
18105;DHT22;9179;50.968;3.134;2023-04-09T12:19:09;26.10;74.40
18105;DHT22;9179;50.968;3.134;2023-04-09T12:21:46;26.40;76.70
18105;DHT22;9179;50.968;3.134;2023-04-09T12:24:16;27.40;74.90
18105;DHT22;9179;50.968;3.134;2023-04-09T12:26:44;27.70;74.80
18105;DHT22;9179;50.968;3.134;2023-04-09T12:29:13;27.60;73.20
18105;DHT22;9179;50.968;3.134;2023-04-09T12:31:40;27.60;72.80
18105;DHT22;9179;50.968;3.134;2023-04-09T12:34:07;27.60;74.10
18105;DHT22;9179;50.968;3.134;2023-04-09T12:36:34;28.10;73.10
18105;DHT22;9179;50.968;3.134;2023-04-09T12:39:01;28.20;72.60
18105;DHT22;9179;50.968;3.134;2023-04-09T12:41:30;28.30;71.80
18105;DHT22;9179;50.968;3.134;2023-04-09T12:43:57;28.40;71.00
18105;DHT22;9179;50.968;3.134;2023-04-09T12:46:24;28.50;70.20
18105;DHT22;9179;50.968;3.134;2023-04-09T12:48:52;28.80;70.70
18105;DHT22;9179;50.968;3.134;2023-04-09T12:51:18;29.00;69.00
18105;DHT22;9179;50.968;3.134;2023-04-09T12:53:45;28.10;67.00
18105;DHT22;9179;50.968;3.134;2023-04-09T12:56:13;28.00;69.00
18105;DHT22;9179;50.968;3.134;2023-04-09T12:58:41;28.80;68.70
18105;DHT22;9179;50.968;3.134;2023-04-09T13:01:08;29.20;67.90
18105;DHT22;9179;50.968;3.134;2023-04-09T13:03:35;29.20;66.80
18105;DHT22;9179;50.968;3.134;2023-04-09T13:06:02;28.60;66.70
18105;DHT22;9179;50.968;3.134;2023-04-09T13:08:29;29.70;66.70
18105;DHT22;9179;50.968;3.134;2023-04-09T13:10:56;30.10;65.50
18105;DHT22;9179;50.968;3.134;2023-04-09T13:13:23;29.50;64.60
18105;DHT22;9179;50.968;3.134;2023-04-09T13:15:51;28.40;65.30
18105;DHT22;9179;50.968;3.134;2023-04-09T13:18:18;29.50;66.00
18105;DHT22;9179;50.968;3.134;2023-04-09T13:20:46;30.70;64.80
18105;DHT22;9179;50.968;3.134;2023-04-09T13:23:13;29.90;63.30
18105;DHT22;9179;50.968;3.134;2023-04-09T13:25:40;27.70;64.60
18105;DHT22;9179;50.968;3.134;2023-04-09T13:28:07;25.70;67.00
18105;DHT22;9179;50.968;3.134;2023-04-09T13:30:33;24.90;69.70
18105;DHT22;9179;50.968;3.134;2023-04-09T13:33:02;26.90;70.10
18105;DHT22;9179;50.968;3.134;2023-04-09T13:35:29;29.40;66.00
18105;DHT22;9179;50.968;3.134;2023-04-09T13:37:56;30.10;62.80
18105;DHT22;9179;50.968;3.134;2023-04-09T13:40:23;31.00;63.00
18105;DHT22;9179;50.968;3.134;2023-04-09T13:42:50;32.40;61.40
18105;DHT22;9179;50.968;3.134;2023-04-09T13:45:17;33.00;59.60
18105;DHT22;9179;50.968;3.134;2023-04-09T13:47:45;32.40;59.00
18105;DHT22;9179;50.968;3.134;2023-04-09T13:50:13;30.30;60.00
18105;DHT22;9179;50.968;3.134;2023-04-09T13:52:40;28.20;62.40
18105;DHT22;9179;50.968;3.134;2023-04-09T13:55:08;26.70;64.60
18105;DHT22;9179;50.968;3.134;2023-04-09T13:57:36;28.20;64.30
18105;DHT22;9179;50.968;3.134;2023-04-09T14:00:03;29.60;61.50
18105;DHT22;9179;50.968;3.134;2023-04-09T14:02:30;31.70;60.00
18105;DHT22;9179;50.968;3.134;2023-04-09T14:04:57;33.40;58.70
18105;DHT22;9179;50.968;3.134;2023-04-09T14:07:25;34.90;57.00
18105;DHT22;9179;50.968;3.134;2023-04-09T14:09:52;35.60;55.40
18105;DHT22;9179;50.968;3.134;2023-04-09T14:12:19;35.80;54.20
18105;DHT22;9179;50.968;3.134;2023-04-09T14:14:46;36.10;53.90
18105;DHT22;9179;50.968;3.134;2023-04-09T14:17:13;36.00;53.10
18105;DHT22;9179;50.968;3.134;2023-04-09T14:19:40;35.20;52.90
18105;DHT22;9179;50.968;3.134;2023-04-09T14:22:07;34.80;53.20
18105;DHT22;9179;50.968;3.134;2023-04-09T14:24:37;33.70;52.60
18105;DHT22;9179;50.968;3.134;2023-04-09T14:27:05;32.50;53.40
18105;DHT22;9179;50.968;3.134;2023-04-09T14:29:32;29.90;55.60
18105;DHT22;9179;50.968;3.134;2023-04-09T14:31:59;29.00;57.70
18105;DHT22;9179;50.968;3.134;2023-04-09T14:34:28;29.80;56.90
18105;DHT22;9179;50.968;3.134;2023-04-09T14:36:55;29.90;56.60
18105;DHT22;9179;50.968;3.134;2023-04-09T14:39:22;30.20;57.00
18105;DHT22;9179;50.968;3.134;2023-04-09T14:41:50;30.90;55.30
18105;DHT22;9179;50.968;3.134;2023-04-09T14:44:17;31.30;54.90
18105;DHT22;9179;50.968;3.134;2023-04-09T14:46:44;32.10;54.30
18105;DHT22;9179;50.968;3.134;2023-04-09T14:49:11;32.20;53.40
18105;DHT22;9179;50.968;3.134;2023-04-09T14:51:38;32.00;53.90
18105;DHT22;9179;50.968;3.134;2023-04-09T14:54:05;32.40;53.50
18105;DHT22;9179;50.968;3.134;2023-04-09T14:56:31;33.40;52.30
18105;DHT22;9179;50.968;3.134;2023-04-09T14:59:00;34.60;52.30
18105;DHT22;9179;50.968;3.134;2023-04-09T15:01:27;35.00;50.90
18105;DHT22;9179;50.968;3.134;2023-04-09T15:03:54;34.60;50.60
18105;DHT22;9179;50.968;3.134;2023-04-09T15:06:21;34.20;51.00
18105;DHT22;9179;50.968;3.134;2023-04-09T15:08:48;34.40;51.00
18105;DHT22;9179;50.968;3.134;2023-04-09T15:11:15;34.00;48.80
18105;DHT22;9179;50.968;3.134;2023-04-09T15:13:42;33.70;50.50
18105;DHT22;9179;50.968;3.134;2023-04-09T15:16:15;32.20;51.40
18105;DHT22;9179;50.968;3.134;2023-04-09T15:18:45;28.70;54.60
18105;DHT22;9179;50.968;3.134;2023-04-09T15:21:15;26.40;58.50
18105;DHT22;9179;50.968;3.134;2023-04-09T15:23:42;28.60;56.70
18105;DHT22;9179;50.968;3.134;2023-04-09T15:26:09;31.60;54.00
18105;DHT22;9179;50.968;3.134;2023-04-09T15:28:36;33.00;51.70
18105;DHT22;9179;50.968;3.134;2023-04-09T15:31:03;34.70;50.30
18105;DHT22;9179;50.968;3.134;2023-04-09T15:33:32;35.20;49.00
18105;DHT22;9179;50.968;3.134;2023-04-09T15:35:59;35.30;49.00
18105;DHT22;9179;50.968;3.134;2023-04-09T15:38:26;36.10;48.50
18105;DHT22;9179;50.968;3.134;2023-04-09T15:40:55;35.80;47.60
18105;DHT22;9179;50.968;3.134;2023-04-09T15:43:22;36.10;47.40
18105;DHT22;9179;50.968;3.134;2023-04-09T15:45:49;34.60;48.90
18105;DHT22;9179;50.968;3.134;2023-04-09T15:48:16;31.60;51.50
18105;DHT22;9179;50.968;3.134;2023-04-09T15:50:45;31.30;52.60
18105;DHT22;9179;50.968;3.134;2023-04-09T15:53:12;33.30;50.40
18105;DHT22;9179;50.968;3.134;2023-04-09T15:55:39;33.40;49.50
18105;DHT22;9179;50.968;3.134;2023-04-09T15:58:06;33.40;49.90